MDT,Max TemperatureF,Mean TemperatureF,Min TemperatureF,Max Dew PointF,MeanDew PointF,Min DewpointF,Max Humidity, Mean Humidity, Min Humidity, Max Sea Level PressureIn, Mean Sea Level PressureIn, Min Sea Level PressureIn, Max VisibilityMiles, Mean VisibilityMiles, Min VisibilityMiles, Max Wind SpeedMPH, Mean Wind SpeedMPH, Max Gust SpeedMPH,PrecipitationIn, CloudCover, Events, WindDirDegrees
2012-8-1,95,78,61,58,52,47,63,44,25,29.97,29.86,29.80,10,10,10,25,9,30,0.00,0,,5
2012-8-2,93,75,56,56,50,42,80,49,18,30.03,29.88,29.70,10,10,9,49,11,63,0.01,1,Rain-Thunderstorm,117
2012-8-3,81,68,54,59,51,42,86,64,41,30.08,29.86,29.72,10,10,10,45,16,54,T,1,Rain-Thunderstorm,322
2012-8-4,79,64,48,50,43,38,89,56,23,30.21,30.10,30.04,10,10,10,30,13,38,0.00,0,,319
2012-8-5,97,72,47,48,44,40,86,50,14,30.22,30.07,29.93,10,10,10,24,11,29,0.00,0,,146
2012-8-6,98,79,60,47,44,39,56,35,14,30.00,29.97,29.94,10,10,10,16,7,18,0.00,0,,26
2012-8-7,95,80,65,54,48,44,52,35,17,30.01,29.97,29.93,10,10,10,20,7,26,T,0,,51
2012-8-8,89,74,59,54,46,36,60,42,24,30.20,30.05,29.96,10,10,10,26,13,32,0.00,0,,5
2012-8-9,88,72,55,54,48,43,83,54,25,30.15,30.10,30.04,10,10,10,18,8,24,0.00,0,,145
2012-8-10,95,77,58,58,50,44,80,50,20,30.09,29.99,29.88,10,10,10,31,12,37,0.04,2,Rain-Thunderstorm,129
2012-8-11,82,71,60,63,59,56,93,69,45,29.99,29.91,29.83,10,9,0,38,12,49,0.53,5,Rain-Thunderstorm,321
2012-8-12,84,70,56,56,53,47,87,59,30,30.14,30.06,29.98,10,10,10,25,12,33,0.00,0,,342
2012-8-13,85,71,57,56,49,45,80,53,25,30.14,30.02,29.89,10,10,10,33,11,43,T,1,Rain-Thunderstorm,154
2012-8-14,88,73,57,56,52,49,84,56,28,29.95,29.79,29.71,10,10,10,16,6,20,0.00,0,,338
2012-8-15,73,65,56,52,49,45,72,56,40,30.22,29.91,29.65,10,10,10,43,21,52,0.00,2,,326
2012-8-16,74,61,47,46,40,36,80,54,27,30.26,30.19,30.12,10,10,10,16,7,21,0.00,3,,355
2012-8-17,85,65,44,46,40,33,76,49,22,30.16,30.03,29.96,10,10,10,18,7,23,0.00,1,,33
2012-8-18,81,67,53,38,34,32,54,36,17,30.11,30.05,30.00,10,10,10,22,12,32,0.00,0,,349
2012-8-19,84,68,51,39,36,35,54,36,18,30.15,30.05,29.97,10,10,10,14,6,18,0.00,0,,341
2012-8-20,86,67,48,39,38,36,61,39,17,30.02,29.96,29.90,10,10,10,13,4,17,0.00,0,,123
2012-8-21,92,70,47,45,40,34,74,44,14,30.03,29.91,29.87,10,10,10,16,5,22,0.00,0,,75
2012-8-22,93,74,55,51,45,42,67,43,18,29.86,29.79,29.73,10,10,10,15,6,18,0.00,0,,26
2012-8-23,95,77,58,50,42,37,56,36,15,29.86,29.79,29.72,10,10,10,20,8,25,0.00,0,,160
2012-8-24,99,81,62,57,46,33,56,37,17,29.81,29.66,29.56,10,10,10,26,14,35,T,0,Rain-Thunderstorm,143
2012-8-25,79,68,56,37,32,29,47,32,16,30.02,29.94,29.84,10,10,10,30,13,39,0.00,1,,59
2012-8-26,88,69,50,48,39,33,50,34,18,30.04,30.00,29.93,10,10,10,17,7,24,0.00,0,,55
2012-8-27,100,78,55,56,46,43,66,41,16,30.10,29.96,29.86,10,10,10,22,6,30,0.00,0,,144
2012-8-28,100,82,63,54,46,40,48,31,13,30.06,29.90,29.84,10,10,10,16,7,20,0.00,0,,45
2012-8-29,107,85,62,51,45,33,60,35,9,29.94,29.72,29.63,10,10,10,28,8,33,0.00,0,,76
2012-8-30,87,76,64,42,37,32,37,27,17,30.01,29.91,29.66,10,10,10,28,12,32,0.00,0,,34
2012-8-31,90,76,62,48,44,35,48,35,21,30.03,29.94,29.83,10,10,6,17,7,22,0.00,0,,145